Time;durP1;ratioP1;P1;durP2;ratioP2;P2;SDS_P1;SDS_P2;PMS_P1;PMS_P2;Temp;Humidity;BMP_temperature;BMP_pressure;BME280_temperature;BME280_humidity;BME280_pressure;Samples;Min_cycle;Max_cycle;Signal;HPM_P1;HPM_P2
2023/07/12 00:01:34;;;;;;;8.35;3.17;;;;;;;18.21;100.00;100700.13;5037179;28;20035;-50
2023/07/12 00:03:59;;;;;;;11.32;2.67;;;;;;;18.56;100.00;100769.78;5054959;28;20033;-50
2023/07/12 00:06:36;;;;;;;13.50;3.13;;;;;;;18.20;100.00;100704.59;5055016;28;20032;-48
2023/07/12 00:09:03;;;;;;;10.52;3.08;;;;;;;18.43;100.00;100740.38;5037223;28;20028;-50
2023/07/12 00:11:28;;;;;;;12.00;3.35;;;;;;;18.11;100.00;100699.03;5054798;28;20040;-47
2023/07/12 00:13:54;;;;;;;9.60;3.38;;;;;;;18.42;100.00;100757.31;5054799;28;20045;-49
2023/07/12 00:16:35;;;;;;;9.43;2.55;;;;;;;18.34;100.00;100765.84;5049910;28;20049;-49
2023/07/12 00:19:00;;;;;;;7.43;2.95;;;;;;;18.08;100.00;100728.53;5033858;28;20041;-49
2023/07/12 00:21:28;;;;;;;10.73;3.20;;;;;;;18.17;100.00;100763.41;5034396;28;20300;-49
2023/07/12 00:23:55;;;;;;;10.95;3.22;;;;;;;17.70;100.00;100689.25;5034656;28;20026;-47
2023/07/12 00:26:32;;;;;;;10.18;3.45;;;;;;;18.01;100.00;100735.22;5033852;28;20042;-46
2023/07/12 00:28:59;;;;;;;9.07;3.88;;;;;;;17.60;100.00;100666.00;5033814;28;20369;-51
2023/07/12 00:31:25;;;;;;;8.70;3.63;;;;;;;17.72;100.00;100689.13;5032478;28;20366;-50
2023/07/12 00:33:51;;;;;;;8.90;3.60;;;;;;;17.87;100.00;100720.09;5049560;28;20067;-54
2023/07/12 00:36:37;;;;;;;14.60;4.25;;;;;;;17.74;100.00;100698.75;5034160;28;20091;-46
2023/07/12 00:39:03;;;;;;;10.95;4.00;;;;;;;17.67;100.00;100697.44;5033527;28;20049;-49
2023/07/12 00:41:58;;;;;;;13.35;4.25;;;;;;;17.60;100.00;100679.31;5032382;28;20038;-49
2023/07/12 00:44:29;;;;;;;13.32;3.75;;;;;;;17.54;100.00;100680.50;5033941;28;20484;-47
2023/07/12 00:46:57;;;;;;;11.82;3.78;;;;;;;17.44;100.00;100698.84;5032592;28;20029;-48
2023/07/12 00:49:23;;;;;;;11.80;4.20;;;;;;;17.27;100.00;100687.56;5034064;28;20393;-49
2023/07/12 00:51:57;;;;;;;13.30;3.85;;;;;;;17.41;100.00;100722.13;5034179;28;20037;-48
2023/07/12 00:54:25;;;;;;;12.27;3.97;;;;;;;17.24;100.00;100691.28;5034220;28;20044;-50
2023/07/12 00:56:50;;;;;;;8.00;3.95;;;;;;;17.46;100.00;100717.38;5032988;28;20079;-48
2023/07/12 00:59:20;;;;;;;10.73;4.20;;;;;;;17.44;100.00;100716.63;5033961;28;20092;-47
2023/07/12 01:01:48;;;;;;;13.50;4.05;;;;;;;17.44;100.00;100720.16;5049403;28;20534;-51
2023/07/12 01:04:28;;;;;;;14.57;4.32;;;;;;;17.43;100.00;100715.75;5033896;28;20041;-49
2023/07/12 01:06:54;;;;;;;14.50;4.10;;;;;;;17.27;100.00;100712.38;5032927;28;20033;-46
2023/07/12 01:09:20;;;;;;;11.02;4.03;;;;;;;17.41;100.00;100707.03;5049359;28;20120;-48
2023/07/12 01:11:46;;;;;;;15.90;4.25;;;;;;;17.09;100.00;100657.63;5049168;28;20473;-48
2023/07/12 01:14:14;;;;;;;16.25;4.30;;;;;;;17.39;100.00;100716.06;5033843;28;20035;-50
2023/07/12 01:16:43;;;;;;;13.88;5.10;;;;;;;16.92;100.00;100678.25;5053710;28;20041;-48
2023/07/12 01:19:09;;;;;;;15.15;4.70;;;;;;;17.32;100.00;100770.59;5036111;28;20029;-47
2023/07/12 01:21:37;;;;;;;13.60;4.82;;;;;;;17.02;100.00;100708.63;5053692;28;20040;-46
2023/07/12 01:24:02;;;;;;;14.68;5.10;;;;;;;17.24;100.00;100723.19;5019193;28;20033;-47
2023/07/12 01:26:41;;;;;;;14.50;4.60;;;;;;;17.31;100.00;100775.06;5053645;28;20111;-47
2023/07/12 01:29:08;;;;;;;16.73;5.32;;;;;;;17.31;100.00;100732.47;5053474;28;20029;-51
2023/07/12 01:31:35;;;;;;;14.63;4.70;;;;;;;17.28;100.00;100715.84;5053116;28;20029;-47
2023/07/12 01:34:00;;;;;;;16.55;4.75;;;;;;;17.25;100.00;100721.41;5035906;28;20033;-47
2023/07/12 01:36:27;;;;;;;14.68;4.85;;;;;;;17.33;100.00;100714.66;5053043;28;20033;-52
2023/07/12 01:38:53;;;;;;;13.38;4.65;;;;;;;17.30;100.00;100738.78;5035225;28;20044;-47
2023/07/12 01:41:19;;;;;;;15.32;4.50;;;;;;;17.04;100.00;100686.31;5053270;28;20032;-47
2023/07/12 01:43:44;;;;;;;16.25;4.47;;;;;;;16.85;100.00;100654.69;5035365;28;20439;-49
2023/07/12 01:46:10;;;;;;;10.57;4.05;;;;;;;17.30;100.00;100736.13;5053183;28;20044;-51
2023/07/12 01:48:36;;;;;;;14.80;4.97;;;;;;;16.78;100.00;100652.50;5053337;28;20040;-47
2023/07/12 01:51:01;;;;;;;19.83;5.03;;;;;;;17.22;100.00;100709.09;5035502;28;20033;-48
2023/07/12 01:53:28;;;;;;;14.55;4.57;;;;;;;16.88;100.00;100646.53;5035351;28;20043;-53
2023/07/12 01:55:54;;;;;;;16.88;4.95;;;;;;;17.28;100.00;100706.06;5052909;28;20124;-48
2023/07/12 01:58:20;;;;;;;12.52;3.42;;;;;;;16.88;100.00;100621.72;5052793;28;20586;-50
2023/07/12 02:00:45;;;;;;;18.08;4.18;;;;;;;17.31;100.00;100708.53;5052683;28;20392;-49
2023/07/12 02:03:10;;;;;;;12.65;3.65;;;;;;;17.29;100.00;100697.16;5052879;28;20044;-50
2023/07/12 02:05:36;;;;;;;10.90;3.67;;;;;;;16.98;100.00;100646.81;5052791;28;20365;-52
2023/07/12 02:08:01;;;;;;;13.88;3.92;;;;;;;17.35;100.00;100706.56;5052939;28;20124;-50
2023/07/12 02:10:27;;;;;;;12.77;4.15;;;;;;;17.22;100.00;100679.84;5052492;28;20033;-48
2023/07/12 02:12:52;;;;;;;10.88;3.50;;;;;;;16.93;100.00;100626.78;5052303;28;20077;-51
2023/07/12 02:15:18;;;;;;;12.82;4.38;;;;;;;17.02;100.00;100632.38;5052773;28;20496;-51
2023/07/12 02:17:44;;;;;;;11.93;3.47;;;;;;;16.94;100.00;100625.81;5035054;28;20053;-48
2023/07/12 02:20:11;;;;;;;15.68;4.63;;;;;;;17.00;100.00;100641.38;5034962;28;20077;-51
2023/07/12 02:22:41;;;;;;;10.65;3.83;;;;;;;17.37;100.00;100700.19;5034914;28;20035;-49
2023/07/12 02:25:08;;;;;;;14.98;4.20;;;;;;;17.46;100.00;100717.38;5052538;28;20086;-47
2023/07/12 02:27:33;;;;;;;11.23;4.03;;;;;;;17.48;100.00;100712.84;5052380;28;20041;-47
2023/07/12 02:29:58;;;;;;;14.30;4.05;;;;;;;17.44;100.00;100712.16;5052655;28;20029;-48
2023/07/12 02:32:26;;;;;;;12.57;3.65;;;;;;;17.13;100.00;100647.69;5052536;28;20029;-48
2023/07/12 02:34:52;;;;;;;15.50;4.00;;;;;;;17.51;100.00;100709.97;5035063;28;20378;-47
2023/07/12 02:37:17;;;;;;;12.32;3.83;;;;;;;17.20;100.00;100659.63;5052324;28;20258;-48
2023/07/12 02:39:44;;;;;;;14.13;3.83;;;;;;;17.42;100.00;100716.72;5052180;28;20388;-47
2023/07/12 02:42:09;;;;;;;14.40;4.70;;;;;;;17.49;100.00;100711.84;5052314;28;20032;-48
2023/07/12 02:44:34;;;;;;;12.85;3.95;;;;;;;17.39;100.00;100698.31;5052416;28;20468;-48
2023/07/12 02:47:00;;;;;;;12.90;3.38;;;;;;;17.08;100.00;100637.31;5051099;28;20468;-49
2023/07/12 02:49:25;;;;;;;9.45;4.05;;;;;;;17.07;100.00;100632.97;5052430;28;20036;-49
2023/07/12 02:51:51;;;;;;;15.02;3.92;;;;;;;17.17;100.00;100650.03;5052613;28;20033;-53
2023/07/12 02:54:16;;;;;;;11.75;3.42;;;;;;;17.15;100.00;100656.41;5052153;28;20079;-51
2023/07/12 02:56:41;;;;;;;11.52;4.03;;;;;;;17.58;100.00;100707.78;5051988;28;20389;-51
2023/07/12 02:59:07;;;;;;;12.35;3.92;;;;;;;17.43;100.00;100670.53;5051091;28;20037;-48
2023/07/12 03:01:32;;;;;;;10.30;3.17;;;;;;;17.58;100.00;100698.00;5050937;28;20419;-49
2023/07/12 03:03:57;;;;;;;12.88;3.42;;;;;;;17.20;100.00;100631.22;5052254;28;20083;-48
2023/07/12 03:06:23;;;;;;;12.30;3.40;;;;;;;17.30;100.00;100656.31;5050769;28;20044;-50
2023/07/12 03:08:48;;;;;;;15.38;3.55;;;;;;;17.54;100.00;100711.59;5052051;28;20505;-51
2023/07/12 03:11:14;;;;;;;12.00;4.00;;;;;;;17.51;100.00;100698.47;5017634;28;20033;-52
2023/07/12 03:13:39;;;;;;;16.98;3.97;;;;;;;17.55;100.00;100690.22;5052170;28;20037;-48
2023/07/12 03:16:06;;;;;;;8.85;3.40;;;;;;;17.22;100.00;100631.13;5051704;28;20527;-51
2023/07/12 03:18:32;;;;;;;18.05;3.95;;;;;;;17.53;100.00;100710.72;5052290;28;20117;-50
2023/07/12 03:20:59;;;;;;;12.55;3.70;;;;;;;17.55;100.00;100698.22;5051854;28;20041;-50
2023/07/12 03:23:24;;;;;;;11.68;4.20;;;;;;;17.19;100.00;100634.00;5051839;28;20048;-47
2023/07/12 03:25:50;;;;;;;18.48;5.03;;;;;;;17.08;100.00;100617.81;5052153;28;20037;-50
2023/07/12 03:28:15;;;;;;;15.57;5.13;;;;;;;17.56;100.00;100704.38;5052089;28;20060;-52
2023/07/12 03:30:40;;;;;;;11.38;3.67;;;;;;;17.13;100.00;100645.84;5052051;28;20064;-47
2023/07/12 03:33:06;;;;;;;19.05;4.32;;;;;;;17.01;100.00;100630.69;5051796;28;20103;-47
2023/07/12 03:35:31;;;;;;;13.18;4.15;;;;;;;17.45;100.00;100716.50;5051893;28;20036;-49
2023/07/12 03:37:56;;;;;;;15.32;4.07;;;;;;;17.09;100.00;100648.81;5051857;28;20033;-46
2023/07/12 03:40:22;;;;;;;11.70;3.55;;;;;;;17.16;100.00;100679.41;5052111;28;20174;-51
2023/07/12 03:42:47;;;;;;;8.57;3.20;;;;;;;17.08;100.00;100685.16;5051991;28;20060;-46
2023/07/12 03:45:13;;;;;;;11.80;3.95;;;;;;;16.86;100.00;100655.53;5051836;28;20082;-48
2023/07/12 03:47:38;;;;;;;11.80;4.15;;;;;;;17.07;100.00;100710.06;5034027;28;20518;-49
2023/07/12 03:50:04;;;;;;;9.77;3.75;;;;;;;16.98;100.00;100700.00;5051550;28;20044;-48
2023/07/12 03:52:29;;;;;;;11.07;4.90;;;;;;;16.88;100.00;100704.16;5051484;28;20037;-47
2023/07/12 03:54:54;;;;;;;15.50;4.70;;;;;;;17.00;100.00;100732.66;5050360;28;20041;-51
2023/07/12 03:57:20;;;;;;;9.40;3.67;;;;;;;16.97;100.00;100714.22;5051635;28;20040;-49
2023/07/12 03:59:45;;;;;;;15.60;4.32;;;;;;;16.93;100.00;100725.16;5051434;28;20393;-48
2023/07/12 04:02:10;;;;;;;14.68;4.55;;;;;;;16.89;100.00;100697.91;5055156;28;20037;-47
2023/07/12 04:04:36;;;;;;;9.32;4.00;;;;;;;17.08;100.00;100735.69;5055349;28;20392;-52
2023/07/12 04:07:02;;;;;;;13.75;3.92;;;;;;;16.80;100.00;100680.69;5055082;28;20037;-47
2023/07/12 04:09:27;;;;;;;11.35;3.78;;;;;;;17.18;100.00;100736.00;5054955;28;20540;-46
2023/07/12 04:11:53;;;;;;;12.85;3.90;;;;;;;17.26;100.00;100737.25;5054951;28;20184;-48
2023/07/12 04:14:18;;;;;;;15.55;4.55;;;;;;;17.32;100.00;100746.66;5054953;28;20083;-45
2023/07/12 04:16:46;;;;;;;13.57;3.80;;;;;;;17.33;100.00;100729.75;5055004;28;20090;-47
2023/07/12 04:19:12;;;;;;;8.32;3.85;;;;;;;17.41;100.00;100735.44;5055021;28;20037;-52
2023/07/12 04:21:37;;;;;;;14.43;4.57;;;;;;;16.99;100.00;100663.63;5037105;28;20041;-45
2023/07/12 04:24:03;;;;;;;11.30;4.18;;;;;;;17.41;100.00;100740.75;5054649;28;20115;-47
2023/07/12 04:26:28;;;;;;;12.50;4.00;;;;;;;17.04;100.00;100681.00;5054737;28;20040;-54
2023/07/12 04:28:54;;;;;;;10.02;4.15;;;;;;;17.44;100.00;100751.22;5054948;28;20469;-48
2023/07/12 04:31:20;;;;;;;12.50;3.90;;;;;;;17.25;100.00;100727.53;5053442;28;20091;-47
2023/07/12 04:33:46;;;;;;;13.18;4.85;;;;;;;17.43;100.00;100765.47;5054687;28;20041;-48
2023/07/12 04:36:13;;;;;;;13.38;4.65;;;;;;;17.13;100.00;100699.03;5036789;28;20051;-48
2023/07/12 04:38:39;;;;;;;13.02;4.25;;;;;;;17.56;100.00;100765.59;5054529;28;20037;-49
2023/07/12 04:41:05;;;;;;;10.85;4.70;;;;;;;17.56;100.00;100773.59;5054298;28;20124;-50
2023/07/12 04:43:30;;;;;;;12.07;4.63;;;;;;;17.27;100.00;100709.69;5054109;28;20072;-46
2023/07/12 04:45:57;;;;;;;15.55;5.20;;;;;;;17.48;100.00;100749.22;5054396;28;20036;-50
2023/07/12 04:48:23;;;;;;;11.15;5.05;;;;;;;17.56;100.00;100766.47;5036566;28;20043;-48
2023/07/12 04:50:55;;;;;;;13.50;5.55;;;;;;;17.62;100.00;100783.84;5036028;28;20389;-49
2023/07/12 04:53:21;;;;;;;7.63;4.60;;;;;;;17.22;100.00;100709.09;5053544;28;20492;-51
2023/07/12 04:55:47;;;;;;;16.17;6.20;;;;;;;17.21;100.00;100695.91;5054002;28;20060;-50
2023/07/12 04:58:12;;;;;;;10.38;5.40;;;;;;;17.61;100.00;100771.47;5054228;28;20071;-47
2023/07/12 05:00:38;;;;;;;16.70;5.82;;;;;;;17.64;100.00;100771.28;5054224;28;20083;-50
2023/07/12 05:03:04;;;;;;;10.52;5.40;;;;;;;17.70;100.00;100760.25;5036571;28;20029;-45
2023/07/12 05:05:29;;;;;;;15.50;5.85;;;;;;;17.57;100.00;100740.72;5053947;28;20069;-50
2023/07/12 05:07:55;;;;;;;14.55;5.22;;;;;;;17.32;100.00;100694.31;5053775;28;20465;-48
2023/07/12 05:10:20;;;;;;;9.57;4.63;;;;;;;17.69;100.00;100746.09;5054054;28;20068;-51
2023/07/12 05:12:45;;;;;;;13.55;4.80;;;;;;;17.97;100.00;100763.84;5052704;28;20044;-50
2023/07/12 05:15:11;;;;;;;13.70;4.60;;;;;;;17.46;100.00;100664.16;5053874;28;20068;-48
2023/07/12 05:17:38;;;;;;;13.13;5.13;;;;;;;17.70;100.00;100712.34;5053600;28;20119;-49
2023/07/12 05:20:08;;;;;;;13.68;4.90;;;;;;;17.68;100.00;100712.47;5053688;28;20043;-53
2023/07/12 05:22:33;;;;;;;15.60;4.95;;;;;;;18.01;100.00;100772.50;5053650;28;20041;-50
2023/07/12 05:24:59;;;;;;;15.48;5.53;;;;;;;17.67;100.00;100726.72;5053381;28;20052;-46
2023/07/12 05:27:25;;;;;;;11.95;4.85;;;;;;;17.96;100.00;100770.97;5053641;28;20036;-48
2023/07/12 05:29:51;;;;;;;17.88;5.38;;;;;;;17.62;100.00;100715.50;5053738;28;20033;-49
2023/07/12 05:32:16;;;;;;;11.65;4.40;;;;;;;17.62;100.00;100717.31;5053488;28;20059;-48
2023/07/12 05:34:42;;;;;;;10.30;4.78;;;;;;;17.70;100.00;100723.00;5053156;28;20115;-48
2023/07/12 05:37:08;;;;;;;16.20;5.57;;;;;;;17.77;100.00;100732.31;5053043;28;20479;-54
2023/07/12 05:39:33;;;;;;;15.95;5.00;;;;;;;18.09;100.00;100787.03;5053107;28;20396;-47
2023/07/12 05:41:59;;;;;;;14.60;5.28;;;;;;;18.21;100.00;100791.59;5035666;28;20045;-50
2023/07/12 05:44:24;;;;;;;14.38;4.57;;;;;;;18.34;100.00;100783.63;5052889;28;20037;-54
2023/07/12 05:46:50;;;;;;;13.88;4.20;;;;;;;18.45;100.00;100787.31;5053240;28;20037;-51
2023/07/12 05:49:15;;;;;;;18.35;4.78;;;;;;;18.09;100.00;100725.78;5035552;28;20488;-52
2023/07/12 05:51:40;;;;;;;15.15;4.30;;;;;;;18.00;100.00;100734.34;5053089;28;20370;-52
2023/07/12 05:54:05;;;;;;;16.77;4.65;;;;;;;17.97;100.00;100751.41;5053060;28;20511;-46
2023/07/12 05:56:31;;;;;;;13.15;4.18;;;;;;;17.94;100.00;100737.41;5053303;28;20037;-50
2023/07/12 05:58:56;;;;;;;14.48;4.28;;;;;;;18.40;100.00;100813.41;5053126;28;20041;-48
2023/07/12 06:01:21;;;;;;;11.45;3.85;;;;;;;18.48;100.00;100824.44;5052603;28;20040;-49
2023/07/12 06:03:47;;;;;;;13.18;3.90;;;;;;;18.60;100.00;100816.59;5052950;28;20044;-51
2023/07/12 06:06:12;;;;;;;11.70;3.50;;;;;;;18.43;100.00;100748.38;5052672;28;20033;-47
2023/07/12 06:08:37;;;;;;;13.48;3.80;;;;;;;18.62;100.00;100754.25;5053028;28;20029;-51
2023/07/12 06:11:03;;;;;;;11.05;3.72;;;;;;;19.01;100.00;100802.22;5052818;28;20043;-51
2023/07/12 06:13:29;;;;;;;9.98;3.58;;;;;;;19.49;100.00;100832.75;5052820;28;20041;-48
2023/07/12 06:15:54;;;;;;;15.95;4.32;;;;;;;19.17;100.00;100769.16;5052570;28;20515;-49
2023/07/12 06:18:20;;;;;;;13.40;3.85;;;;;;;19.07;100.00;100771.59;5034820;28;20041;-46
2023/07/12 06:20:45;;;;;;;14.07;3.53;;;;;;;19.19;100.00;100829.47;5052188;28;20512;-46
2023/07/12 06:23:11;;;;;;;13.13;4.18;;;;;;;18.70;100.00;100767.06;5052221;28;20071;-50
2023/07/12 06:25:37;;;;;;;12.68;4.18;;;;;;;18.53;100.00;100779.69;5052590;28;20071;-52
2023/07/12 06:28:03;;;;;;;15.00;3.45;;;;;;;18.80;100.00;100858.78;5034998;28;20060;-54
2023/07/12 06:30:29;;;;;;;12.52;4.20;;;;;;;18.47;100.00;100789.88;5034587;28;20033;-50
2023/07/12 06:32:54;;;;;;;15.00;4.13;;;;;;;18.54;100.00;100794.72;5051590;28;20040;-49
2023/07/12 06:35:19;;;;;;;14.10;3.83;;;;;;;19.05;100.00;100857.09;5052130;28;20033;-49
2023/07/12 06:37:44;;;;;;;13.95;3.50;;;;;;;19.11;100.00;100858.50;5052155;28;20033;-52
2023/07/12 06:40:10;;;;;;;14.30;3.75;;;;;;;19.22;100.00;100855.09;5052278;28;20396;-50
2023/07/12 06:42:36;;;;;;;8.70;3.20;;;;;;;19.34;100.00;100859.59;5052293;28;20036;-47
2023/07/12 06:45:01;;;;;;;9.98;3.50;;;;;;;19.55;100.00;100851.00;5051669;28;20035;-47
2023/07/12 06:47:26;;;;;;;12.73;3.22;;;;;;;19.69;100.00;100870.53;5050949;28;20035;-51
2023/07/12 06:49:53;;;;;;;12.02;3.88;;;;;;;19.38;100.00;100787.19;5051791;28;20071;-52
2023/07/12 06:52:18;;;;;;;9.48;3.13;;;;;;;20.11;100.00;100862.19;5051880;28;20388;-49
2023/07/12 06:54:44;;;;;;;9.13;3.05;;;;;;;20.45;100.00;100880.22;5034272;28;20032;-47
2023/07/12 06:57:09;;;;;;;6.97;2.95;;;;;;;20.40;100.00;100870.81;5052110;28;20087;-49
2023/07/12 06:59:35;;;;;;;8.25;3.25;;;;;;;20.27;100.00;100873.50;5050863;28;20119;-48
2023/07/12 07:02:00;;;;;;;12.43;2.92;;;;;;;19.50;100.00;100759.69;5051373;28;20499;-50
2023/07/12 07:04:25;;;;;;;8.10;3.08;;;;;;;20.14;100.00;100894.00;5051997;28;20037;-56
2023/07/12 07:06:50;;;;;;;8.75;2.85;;;;;;;20.24;100.00;100895.06;5052216;28;20040;-48
2023/07/12 07:09:16;;;;;;;9.75;3.20;;;;;;;20.34;100.00;100903.34;5051146;28;20033;-48
2023/07/12 07:11:42;;;;;;;11.35;3.05;;;;;;;20.53;100.00;100914.41;5050892;28;20537;-50
2023/07/12 07:14:07;;;;;;;11.13;3.00;;;;;;;20.44;100.00;100896.34;5052031;28;20404;-47
2023/07/12 07:16:32;;;;;;;13.52;3.50;;;;;;;20.50;100.00;100888.75;5051843;28;20132;-47
2023/07/12 07:18:58;;;;;;;10.15;3.85;;;;;;;20.17;100.00;100851.88;5051708;28;20041;-52
2023/07/12 07:21:23;;;;;;;13.77;3.60;;;;;;;20.30;100.00;100907.19;5051870;28;20044;-48
2023/07/12 07:23:49;;;;;;;10.75;3.25;;;;;;;20.10;100.00;100920.13;5051844;28;20033;-52
2023/07/12 07:26:14;;;;;;;12.02;3.00;;;;;;;19.59;100.00;100862.31;5033920;28;20052;-51
2023/07/12 07:28:40;;;;;;;9.05;2.95;;;;;;;19.83;100.00;100929.19;5051939;28;20024;-51
2023/07/12 07:31:07;;;;;;;8.45;2.60;;;;;;;19.74;100.00;100924.47;5051918;28;20120;-51
2023/07/12 07:33:32;;;;;;;11.75;3.05;;;;;;;19.74;100.00;100933.34;5051914;28;20063;-47
2023/07/12 07:35:58;;;;;;;15.48;3.28;;;;;;;19.46;100.00;100838.28;5035529;28;20069;-49
2023/07/12 07:38:27;;;;;;;6.93;2.78;;;;;;;19.99;100.00;100943.22;5055514;28;20093;-51
2023/07/12 07:40:54;;;;;;;13.10;3.47;;;;;;;19.31;100.00;100852.66;5055737;28;20558;-48
2023/07/12 07:43:20;;;;;;;8.68;2.65;;;;;;;19.58;100.00;100933.53;5055625;28;20033;-48
2023/07/12 07:45:45;;;;;;;12.13;3.38;;;;;;;19.17;100.00;100874.09;5037518;28;20021;-50
2023/07/12 07:48:11;;;;;;;9.77;3.08;;;;;;;19.59;100.00;100950.41;5055320;28;20432;-48
2023/07/12 07:50:38;;;;;;;11.45;3.25;;;;;;;19.87;100.00;100941.38;5055548;28;20443;-50
2023/07/12 07:53:04;;;;;;;10.00;2.70;;;;;;;20.55;100.00;100917.81;5055516;28;20108;-49
2023/07/12 07:55:30;;;;;;;10.23;3.45;;;;;;;21.79;100.00;100962.00;5055339;28;20041;-51
2023/07/12 07:57:55;;;;;;;9.95;2.55;;;;;;;21.95;100.00;100929.56;5055270;28;20040;-52
2023/07/12 08:00:20;;;;;;;5.32;2.25;;;;;;;22.58;100.00;100982.59;5054971;28;20044;-48
2023/07/12 08:02:46;;;;;;;7.97;2.30;;;;;;;22.02;100.00;100922.72;5055058;28;20119;-48
2023/07/12 08:05:14;;;;;;;7.28;2.70;;;;;;;22.38;100.00;101002.97;5055108;28;20059;-47
2023/07/12 08:07:41;;;;;;;9.88;2.65;;;;;;;22.42;100.00;101002.59;5036937;28;20456;-49
2023/07/12 08:10:09;;;;;;;7.28;2.00;;;;;;;22.19;100.00;101016.94;5037312;28;20468;-48
2023/07/12 08:12:34;;;;;;;6.80;2.20;;;;;;;22.46;100.00;101053.31;5054957;28;20041;-49
2023/07/12 08:15:00;;;;;;;8.80;2.47;;;;;;;22.72;100.00;101065.56;5054659;28;20476;-48
2023/07/12 08:17:26;;;;;;;6.65;2.58;;;;;;;22.39;100.00;101074.38;5036808;28;20059;-46
2023/07/12 08:19:52;;;;;;;9.13;2.78;;;;;;;21.93;100.00;101065.47;5054921;28;20125;-51
2023/07/12 08:22:21;;;;;;;8.25;2.40;;;;;;;21.41;100.00;101074.72;5055060;28;20065;-51
2023/07/12 08:24:47;;;;;;;6.25;2.13;;;;;;;20.58;100.00;101009.38;5037375;28;20094;-53
2023/07/12 08:27:13;;;;;;;8.27;3.05;;;;;;;20.64;100.00;101043.72;5037000;28;20040;-49
2023/07/12 08:29:39;;;;;;;10.07;2.47;;;;;;;21.09;100.00;101034.25;5051725;28;20389;-49
2023/07/12 08:32:05;;;;;;;6.70;2.28;;;;;;;21.36;100.00;101039.41;5052190;28;20119;-49
2023/07/12 08:34:30;;;;;;;5.93;2.55;;;;;;;21.10;100.00;101019.03;5052102;28;20392;-52
2023/07/12 08:36:56;;;;;;;7.05;2.10;;;;;;;21.29;100.00;101086.31;5052281;28;20033;-51
2023/07/12 08:39:22;;;;;;;6.15;1.85;;;;;;;20.82;100.00;101032.66;5051824;28;20037;-52
2023/07/12 08:41:47;;;;;;;3.38;1.95;;;;;;;21.17;100.00;101090.75;5052077;28;20028;-47
2023/07/12 08:44:16;;;;;;;6.15;2.55;;;;;;;20.96;100.00;101056.59;5034134;28;20523;-49
2023/07/12 08:46:48;;;;;;;7.32;2.20;;;;;;;21.52;100.00;101103.38;5034451;28;20041;-51
2023/07/12 08:49:15;;;;;;;6.00;2.10;;;;;;;21.68;100.00;101039.69;5051726;28;20090;-51
2023/07/12 08:51:40;;;;;;;4.90;2.35;;;;;;;21.66;100.00;101044.28;5033983;28;20033;-49
2023/07/12 08:54:22;;;;;;;6.75;2.28;;;;;;;21.70;100.00;101107.38;5033934;28;20517;-50
2023/07/12 08:56:49;;;;;;;10.55;3.00;;;;;;;21.27;100.00;101107.00;5051761;28;20119;-49
2023/07/12 08:59:15;;;;;;;7.10;2.65;;;;;;;20.70;100.00;101107.47;5051390;28;20094;-51
2023/07/12 09:01:49;;;;;;;6.57;2.13;;;;;;;20.69;100.00;101073.66;5033641;28;20507;-51
2023/07/12 09:04:22;;;;;;;11.23;2.80;;;;;;;21.36;100.00;100990.34;5033728;28;20037;-52
2023/07/12 09:06:50;;;;;;;5.43;1.95;;;;;;;23.00;100.00;101075.78;5051628;28;20101;-53
2023/07/12 09:09:17;;;;;;;4.93;1.48;;;;;;;23.85;100.00;101079.53;5051535;28;20033;-52
2023/07/12 09:11:43;;;;;;;9.13;2.67;;;;;;;24.41;100.00;101115.09;5051189;28;20037;-48
2023/07/12 09:14:14;;;;;;;6.00;2.25;;;;;;;23.77;100.00;101107.06;5052104;28;20036;-48
2023/07/12 09:16:39;;;;;;;;;;;;;;;23.95;100.00;101110.91;5034028;28;20504;-50
2023/07/12 09:19:19;;;;;;;7.13;1.95;;;;;;;24.15;100.00;101116.47;5051218;28;19943;-49
2023/07/12 09:21:55;;;;;;;8.30;2.05;;;;;;;23.76;100.00;101054.25;5033352;28;20036;-49
2023/07/12 09:24:24;;;;;;;6.35;1.85;;;;;;;23.19;100.00;101099.34;5033188;28;20464;-51
2023/07/12 09:26:50;;;;;;;5.47;1.65;;;;;;;22.57;100.00;101085.50;5051355;28;20040;-49
2023/07/12 09:29:20;;;;;;;7.60;2.08;;;;;;;22.70;100.00;101103.25;5051203;28;20094;-50
2023/07/12 09:31:46;;;;;;;9.90;1.98;;;;;;;22.48;100.00;101127.31;5033180;28;20449;-48
2023/07/12 09:34:23;;;;;;;5.60;1.95;;;;;;;22.05;100.00;101108.31;5033441;28;20070;-48
2023/07/12 09:36:58;;;;;;;4.68;1.60;;;;;;;22.11;100.00;101126.63;5049466;28;20036;-51
2023/07/12 09:39:25;;;;;;;5.38;1.98;;;;;;;22.12;100.00;101114.94;5033242;28;20033;-49
2023/07/12 09:41:55;;;;;;;5.30;2.00;;;;;;;22.18;100.00;101111.75;5050707;28;20480;-48
2023/07/12 09:44:21;;;;;;;6.50;1.77;;;;;;;22.61;100.00;101105.78;5051221;28;20040;-52
2023/07/12 09:47:13;;;;;;;5.35;1.80;;;;;;;23.18;100.00;101117.28;5033286;28;20033;-49
2023/07/12 09:49:52;;;;;;;6.63;2.25;;;;;;;23.53;100.00;101119.81;5049440;28;20476;-48
2023/07/12 09:52:26;;;;;;;6.00;1.83;;;;;;;23.34;100.00;101069.41;5032691;28;20531;-45
2023/07/12 09:54:56;;;;;;;4.85;1.98;;;;;;;23.37;100.00;101063.78;5050872;28;20037;-51
2023/07/12 09:57:39;;;;;;;4.78;1.45;;;;;;;24.02;100.00;101138.97;5032846;28;20394;-50
2023/07/12 10:00:20;;;;;;;3.33;1.40;;;;;;;23.98;100.00;101072.13;5050085;28;20120;-47
2023/07/12 10:03:07;;;;;;;3.22;1.48;;;;;;;25.07;100.00;101116.50;5050541;28;20044;-50
2023/07/12 10:05:34;;;;;;;4.72;1.40;;;;;;;25.47;100.00;101143.41;5032787;28;20362;-51
2023/07/12 10:08:14;;;;;;;4.88;1.95;;;;;;;25.85;100.00;101118.41;5032942;28;20551;-51
2023/07/12 10:11:04;;;;;;;4.82;1.70;;;;;;;26.41;100.00;101126.66;5032730;28;20043;-53
2023/07/12 10:13:29;;;;;;;4.65;1.70;;;;;;;26.17;100.00;101133.34;5032686;28;20036;-52
2023/07/12 10:15:55;;;;;;;5.53;2.03;;;;;;;26.45;100.00;101131.59;5050730;28;20049;-49
2023/07/12 10:18:24;;;;;;;4.88;1.50;;;;;;;26.60;100.00;101127.47;5032299;28;20766;-49
2023/07/12 10:20:50;;;;;;;7.90;1.58;;;;;;;25.48;100.00;101075.91;5032491;28;20039;-51
2023/07/12 10:23:19;;;;;;;6.50;1.92;;;;;;;25.63;100.00;101103.31;5050527;28;20048;-51
2023/07/12 10:25:48;;;;;;;3.40;1.70;;;;;;;25.90;100.00;101103.50;5032435;28;20468;-55
2023/07/12 10:28:28;;;;;;;6.00;1.90;;;;;;;25.32;100.00;101148.34;5033089;28;20098;-50
2023/07/12 10:30:56;;;;;;;6.35;1.92;;;;;;;25.07;100.00;101087.69;5032520;28;20036;-50
2023/07/12 10:33:29;;;;;;;7.50;2.20;;;;;;;26.20;100.00;101135.78;5032282;28;20481;-52
2023/07/12 10:36:11;;;;;;;9.25;1.90;;;;;;;26.56;100.00;101136.00;5032150;28;20025;-52
2023/07/12 10:38:36;;;;;;;6.15;2.17;;;;;;;25.27;100.00;101134.44;5050275;28;20392;-50
2023/07/12 10:41:18;;;;;;;6.95;1.90;;;;;;;24.77;100.00;101140.69;5032191;28;20052;-52
2023/07/12 10:43:45;;;;;;;4.60;1.95;;;;;;;24.01;100.00;101106.84;5050082;28;20086;-50
2023/07/12 10:46:18;;;;;;;6.65;1.70;;;;;;;24.37;100.00;101154.84;5015560;28;20468;-52
2023/07/12 10:48:54;;;;;;;4.05;1.85;;;;;;;24.29;100.00;101097.31;5050274;28;20118;-50
2023/07/12 10:51:37;;;;;;;6.38;1.80;;;;;;;24.77;100.00;101094.91;5032373;28;20064;-52
2023/07/12 10:54:04;;;;;;;4.13;1.63;;;;;;;25.58;100.00;101110.97;5050292;28;20025;-52
2023/07/12 10:56:35;;;;;;;6.13;2.50;;;;;;;25.56;100.00;101132.69;5049753;28;20381;-49
2023/07/12 10:59:03;;;;;;;4.35;1.58;;;;;;;25.50;100.00;101160.22;5049409;28;20396;-54
2023/07/12 11:01:48;;;;;;;5.00;2.33;;;;;;;24.97;100.00;101167.63;5049294;28;20155;-52
2023/07/12 11:04:46;;;;;;;4.80;1.73;;;;;;;25.45;100.00;101180.44;5049861;28;20160;-56
2023/07/12 11:07:14;;;;;;;5.25;2.15;;;;;;;24.76;100.00;101158.66;5041768;28;20045;-50
2023/07/12 11:09:43;;;;;;;5.38;1.80;;;;;;;23.91;100.00;101182.03;5051027;28;20056;-54
2023/07/12 11:12:09;;;;;;;4.50;1.70;;;;;;;23.65;100.00;101124.19;5054053;28;20040;-52
2023/07/12 11:14:37;;;;;;;6.07;1.77;;;;;;;24.76;100.00;101173.97;5035478;28;20044;-48